createdAt,value
2023-03-22T00:02:30.590Z,76.47
2023-03-22T00:05:01.524Z,76.53
2023-03-22T00:07:31.964Z,76.28
2023-03-22T00:10:05.605Z,76.37
2023-03-22T00:12:36.090Z,76.15
2023-03-22T00:15:07.632Z,76.45
2023-03-22T00:17:38.416Z,76.15
2023-03-22T00:20:10.377Z,76.14
2023-03-22T00:22:41.474Z,76.01
2023-03-22T00:25:14.920Z,76.04
2023-03-22T00:27:45.667Z,76.16
2023-03-22T00:30:17.192Z,76.40
2023-03-22T00:32:48.295Z,76.02
2023-03-22T00:35:20.058Z,76.28
2023-03-22T00:37:53.409Z,76.32
2023-03-22T00:40:26.641Z,76.40
2023-03-22T00:42:57.219Z,76.50
2023-03-22T00:45:28.581Z,76.60
2023-03-22T00:47:59.112Z,76.68
2023-03-22T00:50:29.868Z,76.62
2023-03-22T00:53:00.537Z,76.81
2023-03-22T00:55:33.689Z,76.89
2023-03-22T00:58:04.280Z,77.25
2023-03-22T01:00:35.166Z,77.21
2023-03-22T01:03:07.727Z,77.37
2023-03-22T01:05:39.831Z,77.38
2023-03-22T01:08:12.965Z,77.54
2023-03-22T01:10:47.595Z,77.55
2023-03-22T01:13:18.693Z,77.49
2023-03-22T01:15:52.643Z,77.56
2023-03-22T01:18:23.588Z,77.22
2023-03-22T01:20:54.507Z,76.85
2023-03-22T01:23:25.290Z,76.75
2023-03-22T01:25:58.659Z,76.41
2023-03-22T01:28:29.327Z,76.14
2023-03-22T01:31:04.510Z,76.24
2023-03-22T01:33:35.145Z,76.12
2023-03-22T01:36:05.642Z,76.08
2023-03-22T01:38:38.258Z,76.06
2023-03-22T01:41:11.543Z,75.92
2023-03-22T01:43:44.787Z,75.95
2023-03-22T01:46:15.316Z,75.72
2023-03-22T01:48:48.764Z,75.68
2023-03-22T01:51:23.041Z,75.85
2023-03-22T01:54:15.772Z,75.91
2023-03-22T01:56:49.824Z,75.91
2023-03-22T01:59:28.159Z,75.72
2023-03-22T02:02:20.397Z,75.58
2023-03-22T02:05:00.569Z,75.93
2023-03-22T02:07:33.306Z,76.04
2023-03-22T02:10:06.714Z,76.02
2023-03-22T02:13:05.743Z,76.10
2023-03-22T02:16:00.961Z,76.06
2023-03-22T02:19:00.689Z,75.97
2023-03-22T02:22:14.458Z,76.07
2023-03-22T02:25:17.683Z,76.16
2023-03-22T02:28:11.380Z,75.91
2023-03-22T02:31:09.626Z,75.91
2023-03-22T02:34:10.823Z,75.58
2023-03-22T02:37:05.576Z,75.84
2023-03-22T02:39:47.391Z,75.61
2023-03-22T02:42:33.965Z,75.65
2023-03-22T02:45:11.184Z,75.61
2023-03-22T02:47:44.896Z,75.62
2023-03-22T02:50:23.231Z,75.77
2023-03-22T02:52:58.385Z,75.74
2023-03-22T02:55:35.217Z,75.81
2023-03-22T02:58:12.946Z,75.74
2023-03-22T03:00:44.778Z,75.78
2023-03-22T03:03:18.465Z,75.79
2023-03-22T03:05:53.482Z,75.60
2023-03-22T03:08:26.598Z,75.73
2023-03-22T03:11:00.052Z,75.67
2023-03-22T03:13:33.860Z,75.58
2023-03-22T03:16:07.984Z,75.58
2023-03-22T03:18:48.479Z,75.60
2023-03-22T03:21:32.688Z,75.64
2023-03-22T03:24:16.150Z,75.79
2023-03-22T03:26:57.232Z,75.76
2023-03-22T03:29:36.283Z,75.50
2023-03-22T03:32:12.445Z,75.70
2023-03-22T03:34:49.587Z,75.93
2023-03-22T03:37:24.976Z,76.06
2023-03-22T03:40:01.618Z,76.02
2023-03-22T03:42:35.457Z,75.65
2023-03-22T03:45:11.434Z,75.98
2023-03-22T03:47:42.764Z,75.99
2023-03-22T03:50:15.962Z,76.04
2023-03-22T03:52:46.513Z,76.09
2023-03-22T03:55:17.598Z,75.93
2023-03-22T03:57:50.685Z,76.01
2023-03-22T04:00:22.943Z,76.11
2023-03-22T04:03:12.072Z,75.97
2023-03-22T04:06:04.025Z,75.93
2023-03-22T04:08:39.241Z,76.09
2023-03-22T04:11:11.013Z,75.92
2023-03-22T04:13:45.204Z,75.89
2023-03-22T04:16:20.344Z,75.90
2023-03-22T04:18:50.940Z,76.06
2023-03-22T04:21:21.837Z,75.77
2023-03-22T04:24:00.947Z,75.87
2023-03-22T04:26:35.549Z,75.72
2023-03-22T04:29:20.157Z,75.87
2023-03-22T04:31:55.536Z,75.66
2023-03-22T04:34:39.206Z,75.58
2023-03-22T04:37:15.177Z,75.75
2023-03-22T04:39:54.574Z,75.63
2023-03-22T04:42:51.512Z,75.70
2023-03-22T04:45:35.115Z,75.86
2023-03-22T04:48:11.307Z,75.87
2023-03-22T04:50:43.124Z,75.78
2023-03-22T04:53:13.702Z,75.83
2023-03-22T04:55:45.813Z,75.78
2023-03-22T04:58:17.262Z,75.75
2023-03-22T05:00:53.371Z,76.18
2023-03-22T05:03:25.704Z,75.88
2023-03-22T05:06:01.525Z,76.00
2023-03-22T05:08:41.362Z,75.71
2023-03-22T05:11:14.974Z,75.66
2023-03-22T05:13:49.113Z,75.81
2023-03-22T05:16:22.389Z,75.98
2023-03-22T05:18:55.518Z,75.72
2023-03-22T05:21:29.749Z,75.81
2023-03-22T05:24:03.037Z,75.95
2023-03-22T05:26:33.696Z,75.92
2023-03-22T05:29:04.662Z,75.98
2023-03-22T05:31:56.223Z,75.73
2023-03-22T05:34:36.148Z,75.78
2023-03-22T05:37:21.330Z,75.77
2023-03-22T05:39:58.554Z,75.71
2023-03-22T05:42:38.142Z,75.94
2023-03-22T05:45:20.897Z,75.77
2023-03-22T05:48:03.291Z,75.77
2023-03-22T05:50:35.426Z,75.83
2023-03-22T05:53:06.562Z,75.75
2023-03-22T05:56:00.801Z,75.46
2023-03-22T05:58:36.691Z,75.67
2023-03-22T06:01:11.159Z,75.87
2023-03-22T06:03:53.814Z,75.89
2023-03-22T06:06:31.434Z,75.68
2023-03-22T06:09:16.767Z,75.62
2023-03-22T06:11:48.660Z,75.85
2023-03-22T06:14:20.108Z,75.48
2023-03-22T06:17:09.498Z,75.61
2023-03-22T06:19:43.128Z,75.32
2023-03-22T06:22:16.039Z,74.90
2023-03-22T06:24:47.466Z,74.78
2023-03-22T06:27:26.219Z,74.70
2023-03-22T06:29:57.955Z,74.93
2023-03-22T06:32:29.765Z,74.81
2023-03-22T06:35:03.843Z,74.94
2023-03-22T06:37:34.705Z,74.85
2023-03-22T06:40:05.622Z,74.87
2023-03-22T06:42:37.145Z,74.61
2023-03-22T06:45:14.736Z,74.74
2023-03-22T06:47:47.596Z,74.41
2023-03-22T06:50:44.079Z,74.39
2023-03-22T06:53:17.887Z,74.13
2023-03-22T06:55:48.455Z,74.01
2023-03-22T06:58:27.120Z,73.97
2023-03-22T07:00:58.688Z,73.67
2023-03-22T07:03:30.888Z,73.80
2023-03-22T07:06:12.899Z,73.85
2023-03-22T07:08:46.867Z,74.14
2023-03-22T07:11:21.319Z,74.40
2023-03-22T07:13:59.630Z,74.91
2023-03-22T07:16:36.885Z,74.85
2023-03-22T07:19:09.712Z,74.85
2023-03-22T07:21:43.663Z,74.97
2023-03-22T07:24:16.115Z,74.81
2023-03-22T07:26:48.351Z,74.32
2023-03-22T07:29:23.330Z,74.18
2023-03-22T07:31:54.005Z,74.13
2023-03-22T07:34:31.706Z,73.66
2023-03-22T07:37:09.620Z,73.39
2023-03-22T07:39:40.360Z,73.11
2023-03-22T07:42:10.950Z,73.09
2023-03-22T07:45:00.262Z,73.07
2023-03-22T07:47:40.811Z,73.03
2023-03-22T07:50:34.079Z,72.97
2023-03-22T07:53:11.958Z,72.93
2023-03-22T07:55:43.074Z,72.61
2023-03-22T07:58:13.805Z,72.34
2023-03-22T08:00:44.922Z,71.91
2023-03-22T08:03:34.862Z,71.19
2023-03-22T08:06:16.623Z,70.41
2023-03-22T08:08:50.137Z,70.19
2023-03-22T08:11:20.829Z,70.33
2023-03-22T08:13:51.548Z,70.43
2023-03-22T08:16:25.180Z,70.68
2023-03-22T08:18:55.866Z,70.74
2023-03-22T08:21:29.563Z,70.76
2023-03-22T08:24:03.876Z,71.07
2023-03-22T08:26:51.413Z,70.89
2023-03-22T08:29:37.746Z,71.12
2023-03-22T08:32:10.698Z,71.12
2023-03-22T08:34:42.425Z,71.11
2023-03-22T08:37:14.935Z,71.06
2023-03-22T08:39:50.462Z,71.03
2023-03-22T08:42:28.334Z,71.09
2023-03-22T08:44:58.777Z,71.29
2023-03-22T08:47:32.601Z,70.88
2023-03-22T08:50:07.753Z,70.99
2023-03-22T08:52:47.598Z,70.88
2023-03-22T08:55:35.410Z,70.77
2023-03-22T08:58:16.487Z,70.75
2023-03-22T09:01:07.028Z,70.76
2023-03-22T09:03:44.888Z,70.62
2023-03-22T09:06:16.336Z,70.65
2023-03-22T09:08:48.876Z,70.64
2023-03-22T09:11:23.507Z,70.46
2023-03-22T09:13:54.397Z,70.25
2023-03-22T09:16:25.131Z,69.97
2023-03-22T09:18:56.011Z,70.02
2023-03-22T09:21:26.604Z,70.01
2023-03-22T09:24:09.367Z,70.18
2023-03-22T09:26:46.993Z,70.28
2023-03-22T09:29:21.082Z,70.23
2023-03-22T09:31:51.765Z,70.21
2023-03-22T09:34:27.482Z,70.02
2023-03-22T09:37:02.346Z,69.54
2023-03-22T09:39:39.163Z,69.36
2023-03-22T09:42:29.509Z,68.51
2023-03-22T09:45:06.171Z,69.21
2023-03-22T09:47:45.822Z,69.00
2023-03-22T09:50:21.894Z,68.69
2023-03-22T09:52:53.663Z,68.39
2023-03-22T09:55:32.647Z,68.03
2023-03-22T09:58:15.698Z,67.63
2023-03-22T10:00:50.512Z,67.34
2023-03-22T10:03:33.742Z,67.61
2023-03-22T10:06:07.885Z,67.37
2023-03-22T10:08:47.527Z,64.89
2023-03-22T10:11:27.276Z,67.41
2023-03-22T10:14:07.694Z,67.25
2023-03-22T10:16:38.791Z,66.75
2023-03-22T10:19:20.137Z,66.79
2023-03-22T10:21:53.324Z,66.60
2023-03-22T10:24:29.844Z,65.84
2023-03-22T10:27:00.952Z,66.11
2023-03-22T10:29:43.647Z,66.27
2023-03-22T10:32:19.356Z,66.35
2023-03-22T10:34:49.968Z,66.30
2023-03-22T10:37:24.938Z,66.71
2023-03-22T10:39:58.592Z,66.53
2023-03-22T10:42:32.665Z,66.04
2023-03-22T10:45:10.167Z,65.43
2023-03-22T10:47:44.337Z,65.54
2023-03-22T10:50:21.772Z,65.66
2023-03-22T10:52:59.542Z,65.25
2023-03-22T10:55:30.493Z,65.15
2023-03-22T10:58:13.897Z,65.06
2023-03-22T11:00:49.946Z,65.06
2023-03-22T11:03:30.930Z,64.68
2023-03-22T11:06:17.072Z,64.71
2023-03-22T11:08:49.796Z,65.33
2023-03-22T11:11:24.140Z,65.13
2023-03-22T11:13:58.537Z,65.21
2023-03-22T11:16:33.175Z,65.11
2023-03-22T11:19:05.256Z,64.68
2023-03-22T11:21:37.779Z,64.63
2023-03-22T11:24:11.082Z,64.93
2023-03-22T11:26:41.985Z,64.93
2023-03-22T11:29:19.698Z,65.07
2023-03-22T11:31:59.231Z,64.62
2023-03-22T11:34:31.729Z,64.78
2023-03-22T11:37:03.712Z,64.82
2023-03-22T11:39:34.359Z,64.77
2023-03-22T11:42:08.729Z,64.93
2023-03-22T11:44:39.320Z,64.72
2023-03-22T11:47:16.242Z,64.57
2023-03-22T11:49:50.768Z,64.31
2023-03-22T11:52:26.137Z,64.07
2023-03-22T11:54:59.003Z,64.09
2023-03-22T11:57:33.428Z,63.40
2023-03-22T12:00:11.983Z,63.30
2023-03-22T12:02:51.592Z,63.16
2023-03-22T12:05:27.270Z,62.89
2023-03-22T12:08:02.583Z,62.84
2023-03-22T12:10:36.910Z,62.91
2023-03-22T12:13:14.176Z,62.55
2023-03-22T12:15:49.631Z,62.79
2023-03-22T12:18:30.283Z,62.18
2023-03-22T12:21:02.520Z,63.00
2023-03-22T12:23:35.468Z,62.98
2023-03-22T12:26:09.569Z,63.08
2023-03-22T12:28:45.322Z,63.42
2023-03-22T12:31:21.552Z,63.38
2023-03-22T12:33:56.800Z,63.30
2023-03-22T12:36:38.118Z,63.21
2023-03-22T12:39:10.817Z,63.03
2023-03-22T12:41:48.447Z,63.37
2023-03-22T12:44:27.009Z,63.43
2023-03-22T12:47:01.200Z,63.42
2023-03-22T12:49:40.638Z,63.56
2023-03-22T12:52:20.653Z,63.24
2023-03-22T12:54:56.830Z,63.59
2023-03-22T12:57:28.049Z,63.39
2023-03-22T13:00:10.525Z,63.56
2023-03-22T13:02:41.471Z,63.21
2023-03-22T13:05:21.378Z,62.92
2023-03-22T13:07:59.002Z,62.96
2023-03-22T13:11:08.690Z,62.73
2023-03-22T13:13:57.496Z,62.16
2023-03-22T13:16:50.701Z,61.67
2023-03-22T13:19:37.711Z,61.72
2023-03-22T13:22:32.044Z,61.00
2023-03-22T13:25:30.685Z,61.84
2023-03-22T13:28:03.659Z,62.79
2023-03-22T13:30:38.056Z,62.86
2023-03-22T13:33:21.150Z,62.83
2023-03-22T13:35:55.074Z,62.79
2023-03-22T13:38:30.650Z,62.92
2023-03-22T13:41:06.399Z,62.88
2023-03-22T13:43:39.904Z,62.90
2023-03-22T13:46:29.249Z,63.29
2023-03-22T13:49:20.810Z,61.28
2023-03-22T13:51:52.333Z,63.22
2023-03-22T13:54:33.542Z,63.38
2023-03-22T13:57:04.468Z,63.31
2023-03-22T14:00:15.018Z,62.78
2023-03-22T14:02:48.577Z,63.17
2023-03-22T14:05:23.472Z,63.34
2023-03-22T14:07:57.471Z,63.54
2023-03-22T14:10:40.382Z,63.73
2023-03-22T14:13:20.275Z,64.11
2023-03-22T14:15:54.697Z,64.77
2023-03-22T14:18:27.282Z,62.11
2023-03-22T14:21:05.569Z,64.97
2023-03-22T14:52:24.643Z,65.52
2023-03-22T14:54:59.530Z,65.57
2023-03-22T14:57:36.938Z,65.64
2023-03-22T15:00:16.577Z,65.62
2023-03-22T15:02:51.045Z,65.74
2023-03-22T15:05:24.833Z,65.74
2023-03-22T15:07:58.579Z,65.35
2023-03-22T15:10:32.570Z,65.35
2023-03-22T15:13:09.143Z,65.21
2023-03-22T15:15:42.412Z,65.13
2023-03-22T15:18:17.412Z,64.97
2023-03-22T15:20:51.324Z,64.92
2023-03-22T15:23:24.421Z,64.84
2023-03-22T15:25:58.934Z,64.86
2023-03-22T15:28:37.002Z,64.95
2023-03-22T15:31:07.965Z,65.10
2023-03-22T15:33:41.285Z,64.92
2023-03-22T15:36:21.031Z,64.67
2023-03-22T15:38:53.959Z,64.79
2023-03-22T15:41:32.036Z,64.79
2023-03-22T15:44:08.359Z,64.86
2023-03-22T15:46:58.548Z,64.15
2023-03-22T15:49:37.944Z,65.00
2023-03-22T15:52:17.324Z,64.93
2023-03-22T15:54:51.881Z,65.17
2023-03-22T15:57:25.338Z,65.37
2023-03-22T16:00:11.640Z,64.89
2023-03-22T16:02:56.024Z,64.99
2023-03-22T16:05:26.782Z,61.47
2023-03-22T16:07:58.972Z,64.77
2023-03-22T16:10:30.684Z,64.93
2023-03-22T16:13:01.803Z,65.03
2023-03-22T16:15:37.436Z,65.23
2023-03-22T16:18:09.364Z,65.13
2023-03-22T16:20:40.728Z,65.15
2023-03-22T16:23:16.820Z,65.26
2023-03-22T16:25:47.754Z,65.24
2023-03-22T16:28:18.501Z,65.44
2023-03-22T16:30:52.067Z,65.50
2023-03-22T16:33:22.994Z,65.58
2023-03-22T16:35:56.194Z,65.37
2023-03-22T16:38:28.567Z,65.56
2023-03-22T16:40:59.403Z,65.52
2023-03-22T16:43:30.107Z,65.40
2023-03-22T16:46:04.350Z,65.51
2023-03-22T16:48:36.505Z,65.31
2023-03-22T16:51:07.750Z,65.24
2023-03-22T16:53:40.631Z,65.22
2023-03-22T16:56:16.498Z,64.99
2023-03-22T16:58:47.187Z,65.13
2023-03-22T17:01:24.728Z,64.95
2023-03-22T17:03:55.692Z,64.87
2023-03-22T17:06:26.728Z,64.70
2023-03-22T17:08:57.651Z,64.65
2023-03-22T17:11:30.104Z,64.91
2023-03-22T17:14:01.348Z,64.81
2023-03-22T17:16:36.975Z,64.93
2023-03-22T17:19:07.803Z,65.06
2023-03-22T17:21:38.906Z,65.22
2023-03-22T17:24:09.649Z,65.45
2023-03-22T17:26:40.348Z,65.31
2023-03-22T17:29:42.654Z,65.23
2023-03-22T17:35:12.438Z,65.47
2023-03-22T17:37:43.299Z,65.72
2023-03-22T17:40:49.654Z,65.69
2023-03-22T17:43:09.168Z,65.77
2023-03-22T17:46:24.721Z,65.66
2023-03-22T17:48:34.165Z,65.55
2023-03-22T17:51:06.349Z,65.58
2023-03-22T17:54:16.692Z,65.74
2023-03-22T17:57:01.160Z,65.44
2023-03-22T17:59:18.154Z,65.63
2023-03-22T18:01:48.810Z,65.58
2023-03-22T18:04:22.347Z,65.67
2023-03-22T18:06:53.104Z,65.67
2023-03-22T18:09:23.839Z,65.71
2023-03-22T18:11:56.771Z,65.53
2023-03-22T18:14:35.727Z,65.40
2023-03-22T18:17:09.942Z,65.33
2023-03-22T18:20:07.327Z,65.42
2023-03-22T18:22:35.319Z,65.39
2023-03-22T18:25:06.760Z,65.54
2023-03-22T18:27:47.424Z,65.58
2023-03-22T18:30:21.016Z,65.51
2023-03-22T18:33:05.572Z,65.38
2023-03-22T18:35:39.284Z,65.57
2023-03-22T18:38:09.853Z,65.42
2023-03-22T18:41:12.789Z,65.81
2023-03-22T18:43:31.276Z,65.71
2023-03-22T18:46:17.043Z,65.55
2023-03-22T18:48:49.758Z,65.76
2023-03-22T18:51:23.115Z,65.75
2023-03-22T18:53:55.368Z,65.82
2023-03-22T18:56:26.129Z,65.58
2023-03-22T18:58:59.565Z,65.64
2023-03-22T19:01:33.236Z,65.65
2023-03-22T19:04:03.992Z,65.57
2023-03-22T19:06:38.729Z,65.62
2023-03-22T19:09:09.723Z,65.82
2023-03-22T19:11:40.662Z,65.95
2023-03-22T19:14:58.233Z,65.82
2023-03-22T19:17:10.617Z,65.64
2023-03-22T19:19:44.964Z,65.51
2023-03-22T19:22:19.428Z,65.56
2023-03-22T19:24:54.569Z,65.56
2023-03-22T19:27:29.096Z,65.51
2023-03-22T19:30:06.571Z,65.32
2023-03-22T19:32:37.635Z,65.16
2023-03-22T19:35:09.925Z,65.10
2023-03-22T19:37:44.646Z,65.18
2023-03-22T19:42:50.611Z,65.37
2023-03-22T19:45:21.915Z,65.42
2023-03-22T19:48:03.818Z,65.66
2023-03-22T19:50:36.225Z,65.63
2023-03-22T19:53:40.121Z,65.55
2023-03-22T19:56:00.766Z,65.71
2023-03-22T19:58:31.712Z,65.66
2023-03-22T20:01:09.983Z,65.65
2023-03-22T20:03:47.997Z,65.91
2023-03-22T20:06:19.464Z,65.97
2023-03-22T20:08:54.128Z,66.03
2023-03-22T20:11:34.919Z,65.87
2023-03-22T20:14:13.550Z,65.86
2023-03-22T20:16:44.410Z,66.00
2023-03-22T20:19:15.182Z,66.10
2023-03-22T20:21:46.409Z,66.02
2023-03-22T20:24:20.199Z,66.03
2023-03-22T20:26:51.105Z,66.02
2023-03-22T20:29:22.289Z,66.05
2023-03-22T20:31:55.045Z,65.81
2023-03-22T20:34:25.972Z,65.53
2023-03-22T20:36:56.970Z,65.24
2023-03-22T20:39:30.420Z,65.18
2023-03-22T20:42:01.128Z,65.17
2023-03-22T20:44:32.196Z,65.08
2023-03-22T20:47:04.275Z,65.01
2023-03-22T20:49:35.237Z,64.90
2023-03-22T20:52:07.661Z,64.89
2023-03-22T20:54:40.993Z,65.04
2023-03-22T20:57:11.889Z,65.04
2023-03-22T20:59:42.721Z,65.20
2023-03-22T21:02:16.039Z,65.22
2023-03-22T21:04:47.167Z,65.35
2023-03-22T21:07:17.929Z,65.39
2023-03-22T21:09:53.869Z,65.59
2023-03-22T21:12:24.641Z,65.72
2023-03-22T21:14:55.380Z,65.65
2023-03-22T21:17:28.201Z,65.74
2023-03-22T21:19:58.902Z,65.51
2023-03-22T21:22:30.863Z,65.58
2023-03-22T21:25:04.103Z,65.51
2023-03-22T21:27:35.052Z,65.54
2023-03-22T21:30:06.145Z,65.60
2023-03-22T21:32:37.277Z,65.58
2023-03-22T21:35:09.519Z,65.64
2023-03-22T21:37:40.086Z,65.53
2023-03-22T21:40:14.868Z,65.46
2023-03-22T21:42:46.813Z,65.64
2023-03-22T21:45:17.537Z,65.33
2023-03-22T21:47:53.941Z,65.51
2023-03-22T21:50:26.950Z,65.76
2023-03-22T21:52:58.824Z,65.73
2023-03-22T21:55:33.122Z,66.34
2023-03-22T21:58:03.938Z,65.94
2023-03-22T22:00:35.120Z,66.01
2023-03-22T22:03:05.652Z,65.75
2023-03-22T22:05:37.104Z,65.71
2023-03-22T22:08:08.606Z,65.50
2023-03-22T22:10:41.972Z,65.29
2023-03-22T22:13:12.979Z,65.37
2023-03-22T22:15:43.749Z,65.39
2023-03-22T22:18:16.988Z,65.47
2023-03-22T22:20:47.472Z,65.48
2023-03-22T22:23:20.161Z,65.26
2023-03-22T22:25:56.169Z,65.24
2023-03-22T22:28:27.009Z,65.55
2023-03-22T22:31:00.754Z,65.29
2023-03-22T22:33:31.656Z,65.32
2023-03-22T22:36:02.758Z,65.08
2023-03-22T22:38:33.418Z,64.99
2023-03-22T22:41:08.526Z,64.86
2023-03-22T22:43:39.543Z,65.01
2023-03-22T22:46:10.840Z,64.95
2023-03-22T22:48:42.859Z,64.81
2023-03-22T22:51:17.593Z,64.81
2023-03-22T22:53:48.772Z,64.93
2023-03-22T22:56:23.185Z,64.94
2023-03-22T22:58:54.478Z,64.90
2023-03-22T23:01:25.251Z,64.77
2023-03-22T23:03:55.903Z,65.06
2023-03-22T23:06:26.806Z,64.97
2023-03-22T23:09:01.949Z,65.15
2023-03-22T23:11:38.006Z,65.03
2023-03-22T23:14:09.052Z,65.15
2023-03-22T23:16:40.095Z,65.09
2023-03-22T23:19:11.312Z,65.15
2023-03-22T23:21:47.426Z,65.09
2023-03-22T23:24:18.748Z,65.27
2023-03-22T23:26:57.079Z,65.20
2023-03-22T23:29:28.267Z,65.22
2023-03-22T23:32:01.248Z,65.36
2023-03-22T23:34:32.280Z,65.29
2023-03-22T23:37:10.991Z,65.25
2023-03-22T23:39:41.876Z,65.49
2023-03-22T23:42:15.796Z,65.62
2023-03-22T23:44:46.371Z,65.56
2023-03-22T23:47:16.953Z,65.59
2023-03-22T23:49:47.584Z,65.44
2023-03-22T23:52:20.678Z,65.58
2023-03-22T23:54:51.668Z,65.72
2023-03-22T23:57:26.188Z,65.88
2023-03-22T23:59:57.986Z,65.99
